createdAt,value
2024-01-07T00:00:01.946Z,-0.06
2024-01-07T00:00:45.773Z,-0.10
2024-01-07T00:02:44.804Z,-0.14
2024-01-07T00:06:13.643Z,-0.14
2024-01-07T00:07:00.629Z,-0.11
2024-01-07T00:07:52.996Z,-0.15
2024-01-07T00:12:34.309Z,-0.18
2024-01-07T00:14:20.436Z,-0.17
2024-01-07T00:15:39.753Z,-0.20
2024-01-07T00:16:53.018Z,-0.20
2024-01-07T00:18:22.990Z,-0.24
2024-01-07T00:19:15.399Z,-0.25
2024-01-07T00:20:24.392Z,-0.25
2024-01-07T00:21:13.163Z,-0.29
2024-01-07T00:21:56.621Z,-0.28
2024-01-07T00:22:46.873Z,-0.28
2024-01-07T00:27:26.578Z,-0.31
2024-01-07T00:28:10.328Z,-0.35
2024-01-07T00:28:55.277Z,-0.27
2024-01-07T00:29:45.431Z,-0.32
2024-01-07T00:31:50.301Z,-0.30
2024-01-07T00:32:35.910Z,-0.30
2024-01-07T00:33:30.058Z,-0.33
2024-01-07T00:34:36.740Z,-0.39
2024-01-07T00:35:43.387Z,-0.31
2024-01-07T00:36:55.065Z,-0.33
2024-01-07T00:38:05.800Z,-0.32
2024-01-07T00:38:51.329Z,-0.32
2024-01-07T00:40:18.430Z,-0.33
2024-01-07T00:41:31.937Z,-0.35
2024-01-07T00:42:12.057Z,-0.33
2024-01-07T00:43:16.857Z,-0.30
2024-01-07T00:44:23.629Z,-0.34
2024-01-07T00:45:44.337Z,-0.31
2024-01-07T00:46:30.620Z,-0.33
2024-01-07T00:47:38.130Z,-0.37
2024-01-07T00:48:35.292Z,-0.36
2024-01-07T00:49:49.198Z,-0.33
2024-01-07T00:50:54.849Z,-0.42
2024-01-07T00:51:45.197Z,-0.44
2024-01-07T00:52:42.510Z,-0.46
2024-01-07T00:53:32.240Z,-0.44
2024-01-07T00:54:41.772Z,-0.42
2024-01-07T00:57:00.793Z,-0.42
2024-01-07T00:57:43.249Z,-0.41
2024-01-07T00:58:46.852Z,-0.41
2024-01-07T01:00:33.989Z,-0.39
2024-01-07T01:01:29.269Z,-0.32
2024-01-07T01:02:27.626Z,-0.27
2024-01-07T01:04:17.751Z,-0.22
2024-01-07T01:05:31.717Z,-0.24
2024-01-07T01:06:30.187Z,-0.32
2024-01-07T01:07:48.042Z,-0.34
2024-01-07T01:08:52.782Z,-0.39
2024-01-07T01:09:48.336Z,-0.34
2024-01-07T01:10:50.248Z,-0.31
2024-01-07T01:11:36.603Z,-0.34
2024-01-07T01:12:23.068Z,-0.36
2024-01-07T01:15:51.064Z,-0.34
2024-01-07T01:16:40.036Z,-0.40
2024-01-07T01:18:26.498Z,-0.38
2024-01-07T01:20:19.568Z,-0.36
2024-01-07T01:21:02.623Z,-0.39
2024-01-07T01:21:54.047Z,-0.38
2024-01-07T01:22:48.395Z,-0.37
2024-01-07T01:23:59.018Z,-0.40
2024-01-07T01:24:49.410Z,-0.38
2024-01-07T01:25:35.922Z,-0.41
2024-01-07T01:28:23.952Z,-0.51
2024-01-07T01:28:49.994Z,-0.51
2024-01-07T01:31:03.367Z,-0.50
2024-01-07T01:33:30.717Z,-0.53
2024-01-07T01:37:45.040Z,-0.49
2024-01-07T01:38:55.912Z,-0.50
2024-01-07T01:40:15.136Z,-0.50
2024-01-07T01:41:04.269Z,-0.53
2024-01-07T01:42:40.248Z,-0.55
2024-01-07T01:44:00.343Z,-0.51
2024-01-07T01:45:24.927Z,-0.55
2024-01-07T01:46:10.272Z,-0.53
2024-01-07T01:47:09.248Z,-0.51
2024-01-07T01:47:47.811Z,-0.51
2024-01-07T01:48:51.598Z,-0.54
2024-01-07T01:49:53.870Z,-0.54
2024-01-07T01:51:47.927Z,-0.58
2024-01-07T01:52:29.211Z,-0.55
2024-01-07T01:55:00.184Z,-0.59
2024-01-07T01:56:08.339Z,-0.60
2024-01-07T01:57:13.315Z,-0.61
2024-01-07T01:57:57.470Z,-0.59
2024-01-07T01:58:52.301Z,-0.59
2024-01-07T02:00:09.735Z,-0.55
2024-01-07T02:01:34.737Z,-0.57
2024-01-07T02:03:52.453Z,-0.59
2024-01-07T02:05:48.503Z,-0.56
2024-01-07T02:07:06.800Z,-0.60
2024-01-07T02:09:48.905Z,-0.58
2024-01-07T02:11:07.676Z,-0.53
2024-01-07T02:11:51.241Z,-0.51
2024-01-07T02:12:51.831Z,-0.44
2024-01-07T02:14:55.886Z,-0.49
2024-01-07T02:15:53.406Z,-0.51
2024-01-07T02:18:04.892Z,-0.50
2024-01-07T02:18:57.624Z,-0.53
2024-01-07T02:19:53.202Z,-0.58
2024-01-07T02:21:11.831Z,-0.56
2024-01-07T02:23:36.638Z,-0.62
2024-01-07T02:26:02.143Z,-0.66
2024-01-07T02:27:25.641Z,-0.70
2024-01-07T02:28:33.417Z,-0.71
2024-01-07T02:29:34.532Z,-0.71
2024-01-07T02:30:09.402Z,-0.72
2024-01-07T02:31:03.156Z,-0.73
2024-01-07T02:32:08.643Z,-0.72
2024-01-07T02:33:03.060Z,-0.69
2024-01-07T02:34:02.046Z,-0.69
2024-01-07T02:34:39.991Z,-0.71
2024-01-07T02:35:54.782Z,-0.71
2024-01-07T02:36:47.688Z,-0.68
2024-01-07T02:37:31.575Z,-0.69
2024-01-07T02:40:32.987Z,-0.76
2024-01-07T02:41:37.576Z,-0.79
2024-01-07T02:42:32.984Z,-0.76
2024-01-07T02:43:19.705Z,-0.74
2024-01-07T02:44:20.147Z,-0.72
2024-01-07T02:45:35.038Z,-0.75
2024-01-07T02:48:59.370Z,-0.73
2024-01-07T02:50:12.577Z,-0.75
2024-01-07T02:50:44.711Z,-0.69
2024-01-07T02:51:58.333Z,-0.69
2024-01-07T02:52:53.362Z,-0.68
2024-01-07T02:53:44.118Z,-0.75
2024-01-07T02:54:58.045Z,-0.75
2024-01-07T02:57:51.618Z,-0.77
2024-01-07T02:58:55.787Z,-0.77
2024-01-07T02:59:52.643Z,-0.78
2024-01-07T03:00:52.953Z,-0.77
2024-01-07T03:01:59.854Z,-0.76
2024-01-07T03:02:52.470Z,-0.74
2024-01-07T03:04:50.914Z,-0.73
2024-01-07T03:05:47.808Z,-0.69
2024-01-07T03:06:28.856Z,-0.69
2024-01-07T03:07:23.112Z,-0.74
2024-01-07T03:08:38.570Z,-0.73
2024-01-07T03:09:45.776Z,-0.68
2024-01-07T03:10:43.802Z,-0.72
2024-01-07T03:11:23.740Z,-0.71
2024-01-07T03:13:19.247Z,-0.78
2024-01-07T03:16:34.205Z,-0.77
2024-01-07T03:17:39.844Z,-0.74
2024-01-07T03:19:32.579Z,-0.72
2024-01-07T03:20:26.884Z,-0.75
2024-01-07T03:21:37.657Z,-0.75
2024-01-07T03:22:39.576Z,-0.69
2024-01-07T03:23:54.822Z,-0.69
2024-01-07T03:24:35.708Z,-0.68
2024-01-07T03:25:47.064Z,-0.57
2024-01-07T03:27:01.588Z,-0.63
2024-01-07T03:27:59.259Z,-0.66
2024-01-07T03:28:30.919Z,-0.63
2024-01-07T03:29:03.393Z,-0.66
2024-01-07T03:29:35.467Z,-0.70
2024-01-07T03:30:07.787Z,-0.68
2024-01-07T03:30:39.676Z,-0.70
2024-01-07T03:31:14.821Z,-0.67
2024-01-07T03:31:46.676Z,-0.68
2024-01-07T03:32:19.100Z,-0.67
2024-01-07T03:32:50.832Z,-0.66
2024-01-07T03:33:22.536Z,-0.69
2024-01-07T03:33:54.258Z,-0.70
2024-01-07T03:34:26.058Z,-0.75
2024-01-07T03:34:57.923Z,-0.74
2024-01-07T03:35:29.637Z,-0.71
2024-01-07T03:36:01.320Z,-0.73
2024-01-07T03:36:32.985Z,-0.74
2024-01-07T03:37:04.749Z,-0.68
2024-01-07T03:37:36.720Z,-0.74
2024-01-07T03:38:08.308Z,-0.77
2024-01-07T03:38:41.070Z,-0.75
2024-01-07T03:39:12.717Z,-0.69
2024-01-07T03:39:45.561Z,-0.69
2024-01-07T03:40:17.197Z,-0.74
2024-01-07T03:40:48.808Z,-0.72
2024-01-07T03:41:21.345Z,-0.77
2024-01-07T03:41:56.494Z,-0.77
2024-01-07T03:42:28.094Z,-0.72
2024-01-07T03:42:59.797Z,-0.75
2024-01-07T03:43:31.634Z,-0.75
2024-01-07T03:44:05.542Z,-0.76
2024-01-07T03:44:37.233Z,-0.77
2024-01-07T03:45:09.245Z,-0.76
2024-01-07T03:45:40.802Z,-0.79
2024-01-07T03:46:12.458Z,-0.77
2024-01-07T03:46:44.173Z,-0.75
2024-01-07T03:47:15.821Z,-0.76
2024-01-07T03:47:47.551Z,-0.79
2024-01-07T03:48:20.849Z,-0.76
2024-01-07T03:48:52.560Z,-0.78
2024-01-07T03:49:24.384Z,-0.75
2024-01-07T03:49:55.987Z,-0.75
2024-01-07T03:50:27.575Z,-0.76
2024-01-07T03:50:59.282Z,-0.77
2024-01-07T03:51:30.944Z,-0.78
2024-01-07T03:52:04.546Z,-0.80
2024-01-07T03:52:36.706Z,-0.78
2024-01-07T03:53:08.418Z,-0.78
2024-01-07T03:53:40.061Z,-0.80
2024-01-07T03:54:11.677Z,-0.82
2024-01-07T03:54:43.433Z,-0.80
2024-01-07T03:55:15.181Z,-0.80
2024-01-07T03:55:46.834Z,-0.77
2024-01-07T03:56:18.403Z,-0.78
2024-01-07T03:56:49.974Z,-0.78
2024-01-07T03:57:22.141Z,-0.78
2024-01-07T03:57:53.856Z,-0.80
2024-01-07T03:58:25.558Z,-0.80
2024-01-07T03:58:57.231Z,-0.79
2024-01-07T03:59:29.328Z,-0.80
2024-01-07T04:00:00.910Z,-0.80
2024-01-07T04:00:33.136Z,-0.80
2024-01-07T04:01:05.438Z,-0.80
2024-01-07T04:01:37.384Z,-0.80
2024-01-07T04:02:09.119Z,-0.78
2024-01-07T04:02:40.728Z,-0.76
2024-01-07T04:03:12.384Z,-0.80
2024-01-07T04:03:44.050Z,-0.87
2024-01-07T04:04:15.858Z,-0.88
2024-01-07T04:04:47.531Z,-0.84
2024-01-07T04:05:19.278Z,-0.88
2024-01-07T04:05:50.951Z,-0.85
2024-01-07T04:06:22.597Z,-0.88
2024-01-07T04:06:54.324Z,-0.87
2024-01-07T04:07:25.883Z,-0.87
2024-01-07T04:07:57.494Z,-0.88
2024-01-07T04:08:29.746Z,-0.89
2024-01-07T04:09:01.296Z,-0.85
2024-01-07T04:09:32.903Z,-0.82
2024-01-07T04:10:04.960Z,-0.85
2024-01-07T04:10:36.679Z,-0.83
2024-01-07T04:11:08.350Z,-0.80
2024-01-07T04:11:41.977Z,-0.81
2024-01-07T04:12:13.622Z,-0.82
2024-01-07T04:12:45.778Z,-0.83
2024-01-07T04:13:17.515Z,-0.84
2024-01-07T04:13:49.169Z,-0.85
2024-01-07T04:14:20.794Z,-0.93
2024-01-07T04:14:52.397Z,-0.89
2024-01-07T04:15:24.569Z,-0.87
2024-01-07T04:15:56.173Z,-0.90
2024-01-07T04:16:27.803Z,-0.89
2024-01-07T04:16:59.429Z,-0.87
2024-01-07T04:17:31.124Z,-0.90
2024-01-07T04:18:04.597Z,-0.88
2024-01-07T04:18:36.385Z,-0.84
2024-01-07T04:19:08.230Z,-0.84
2024-01-07T04:19:40.022Z,-0.84
2024-01-07T04:20:14.240Z,-0.83
2024-01-07T04:20:45.837Z,-0.83
2024-01-07T04:21:17.441Z,-0.90
2024-01-07T04:21:49.152Z,-0.91
2024-01-07T04:22:20.871Z,-0.94
2024-01-07T04:22:52.467Z,-0.89
2024-01-07T04:23:24.080Z,-0.90
2024-01-07T04:23:55.665Z,-0.91
2024-01-07T04:24:27.374Z,-0.88
2024-01-07T04:24:59.102Z,-0.87
2024-01-07T04:25:30.762Z,-0.88
2024-01-07T04:26:02.426Z,-0.87
2024-01-07T04:26:34.125Z,-0.93
2024-01-07T04:27:05.752Z,-0.94
2024-01-07T04:27:40.240Z,-0.91
2024-01-07T04:28:12.178Z,-0.91
2024-01-07T04:28:44.157Z,-0.91
2024-01-07T04:29:15.861Z,-0.98
2024-01-07T04:29:47.869Z,-0.94
2024-01-07T04:30:19.684Z,-0.91
2024-01-07T04:30:51.725Z,-0.93
2024-01-07T04:31:23.437Z,-0.96
2024-01-07T04:31:55.189Z,-0.89
2024-01-07T04:32:26.928Z,-0.97
2024-01-07T04:32:58.539Z,-1.00
2024-01-07T04:33:30.301Z,-1.02
2024-01-07T04:34:02.172Z,-1.00
2024-01-07T04:34:33.960Z,-0.99
2024-01-07T04:35:07.397Z,-0.99
2024-01-07T04:35:39.235Z,-1.03
2024-01-07T04:36:10.846Z,-1.05
2024-01-07T04:36:42.737Z,-1.06
2024-01-07T04:37:14.413Z,-1.00
2024-01-07T04:37:46.195Z,-1.05
2024-01-07T04:38:17.801Z,-1.05
2024-01-07T04:38:49.391Z,-1.02
2024-01-07T04:39:21.322Z,-1.01
2024-01-07T04:39:53.036Z,-1.07
2024-01-07T04:40:24.622Z,-1.09
2024-01-07T04:40:56.295Z,-1.05
2024-01-07T04:41:27.920Z,-1.02
2024-01-07T04:41:59.524Z,-1.08
2024-01-07T04:42:31.257Z,-1.07
2024-01-07T04:43:02.936Z,-1.06
2024-01-07T04:43:36.321Z,-1.06
2024-01-07T04:44:07.886Z,-1.05
2024-01-07T04:44:39.485Z,-1.06
2024-01-07T04:45:11.155Z,-1.02
2024-01-07T04:45:42.838Z,-1.06
2024-01-07T04:46:15.016Z,-1.06
2024-01-07T04:46:48.725Z,-1.04
2024-01-07T04:47:31.242Z,-1.02
2024-01-07T04:48:03.109Z,-0.99
2024-01-07T04:48:34.995Z,-1.05
2024-01-07T04:49:07.442Z,-1.04
2024-01-07T04:49:39.649Z,-1.02
2024-01-07T04:50:11.406Z,-0.99
2024-01-07T04:50:43.124Z,-0.95
2024-01-07T04:51:14.900Z,-0.94
2024-01-07T04:51:46.590Z,-1.00
2024-01-07T04:52:18.217Z,-0.99
2024-01-07T04:52:49.953Z,-1.00
2024-01-07T04:53:21.577Z,-1.01
2024-01-07T04:53:53.196Z,-1.01
2024-01-07T04:54:25.094Z,-0.99
2024-01-07T04:54:57.704Z,-0.98
2024-01-07T04:55:30.931Z,-1.04
2024-01-07T04:56:02.500Z,-1.02
2024-01-07T04:56:34.595Z,-1.01
2024-01-07T04:57:06.191Z,-0.97
2024-01-07T04:57:37.944Z,-0.96
2024-01-07T04:58:09.659Z,-0.94
2024-01-07T04:58:41.362Z,-0.98
2024-01-07T04:59:13.106Z,-0.97
2024-01-07T04:59:44.914Z,-0.98
2024-01-07T05:00:16.811Z,-0.98
2024-01-07T05:00:48.490Z,-0.98
2024-01-07T05:01:20.251Z,-1.04
2024-01-07T05:01:51.996Z,-1.02
2024-01-07T05:02:24.476Z,-1.06
2024-01-07T05:02:56.533Z,-1.06
2024-01-07T05:03:28.404Z,-1.01
2024-01-07T05:04:02.374Z,-1.03
2024-01-07T05:04:36.675Z,-1.03
2024-01-07T05:05:11.379Z,-0.98
2024-01-07T05:05:43.044Z,-1.00
2024-01-07T05:06:14.722Z,-0.95
2024-01-07T05:06:46.560Z,-0.97
2024-01-07T05:07:18.317Z,-0.88
2024-01-07T05:07:49.949Z,-0.89
2024-01-07T05:08:24.984Z,-0.93
2024-01-07T05:08:58.150Z,-0.93
2024-01-07T05:09:29.913Z,-0.96
2024-01-07T05:10:01.560Z,-0.97
2024-01-07T05:10:33.414Z,-0.96
2024-01-07T05:11:05.400Z,-1.04
2024-01-07T05:11:41.026Z,-1.05
2024-01-07T05:12:12.870Z,-1.07
2024-01-07T05:12:44.712Z,-1.05
2024-01-07T05:13:16.720Z,-1.07
2024-01-07T05:13:48.384Z,-1.06
2024-01-07T05:14:20.295Z,-1.05
2024-01-07T05:14:51.995Z,-1.06
2024-01-07T05:15:23.625Z,-1.10
2024-01-07T05:15:55.503Z,-1.12
2024-01-07T05:16:27.234Z,-1.11
2024-01-07T05:16:58.860Z,-1.12
2024-01-07T05:17:30.795Z,-1.11
2024-01-07T05:18:03.565Z,-1.06
2024-01-07T05:18:35.479Z,-1.07
2024-01-07T05:19:07.342Z,-1.10
2024-01-07T05:19:41.998Z,-1.14
2024-01-07T05:20:16.516Z,-1.13
2024-01-07T05:20:48.296Z,-1.12
2024-01-07T05:21:20.088Z,-1.11
2024-01-07T05:21:51.788Z,-1.12
2024-01-07T05:22:23.688Z,-1.12
2024-01-07T05:22:55.278Z,-1.12
2024-01-07T05:23:26.872Z,-1.10
2024-01-07T05:23:58.416Z,-1.10
2024-01-07T05:24:31.747Z,-1.09
2024-01-07T05:25:05.210Z,-1.10
2024-01-07T05:25:36.803Z,-1.09
2024-01-07T05:26:08.403Z,-1.09
2024-01-07T05:26:40.866Z,-1.14
2024-01-07T05:27:12.545Z,-1.14
2024-01-07T05:27:44.295Z,-1.11
2024-01-07T05:28:16.054Z,-1.11
2024-01-07T05:28:47.751Z,-1.12
2024-01-07T05:29:19.347Z,-1.11
2024-01-07T05:29:51.110Z,-1.13
2024-01-07T05:30:23.489Z,-1.15
2024-01-07T05:30:55.177Z,-1.14
2024-01-07T05:31:26.869Z,-1.16
2024-01-07T05:31:59.284Z,-1.13
2024-01-07T05:32:30.984Z,-1.07
2024-01-07T05:33:02.848Z,-1.12
2024-01-07T05:33:34.790Z,-1.13
2024-01-07T05:34:06.708Z,-1.15
2024-01-07T05:34:38.499Z,-1.15
2024-01-07T05:35:10.229Z,-1.12
2024-01-07T05:35:41.869Z,-1.11
2024-01-07T05:36:13.764Z,-1.11
2024-01-07T05:36:45.366Z,-1.13
2024-01-07T05:37:17.063Z,-1.11
2024-01-07T05:37:48.733Z,-1.10
2024-01-07T05:38:20.486Z,-1.12
2024-01-07T05:38:52.159Z,-1.10
2024-01-07T05:39:23.843Z,-1.10
2024-01-07T05:39:55.489Z,-1.12
2024-01-07T05:40:27.075Z,-1.12
2024-01-07T05:40:58.647Z,-1.09
2024-01-07T05:41:30.303Z,-1.08
2024-01-07T05:42:01.984Z,-1.10
2024-01-07T05:42:33.661Z,-1.14
2024-01-07T05:43:05.471Z,-1.15
2024-01-07T05:43:37.641Z,-1.10
2024-01-07T05:44:09.713Z,-1.08
2024-01-07T05:44:41.776Z,-1.09
2024-01-07T05:45:13.366Z,-1.14
2024-01-07T05:45:45.042Z,-1.14
2024-01-07T05:46:16.710Z,-1.11
2024-01-07T05:46:48.311Z,-1.14
2024-01-07T05:47:19.977Z,-1.13
2024-01-07T05:47:53.081Z,-1.13
2024-01-07T05:48:24.815Z,-1.17
2024-01-07T05:48:57.083Z,-1.15
2024-01-07T05:49:28.864Z,-1.17
2024-01-07T05:50:00.591Z,-1.17
2024-01-07T05:50:32.244Z,-1.13
2024-01-07T05:51:03.970Z,-1.13
2024-01-07T05:51:40.009Z,-1.15
2024-01-07T05:52:11.763Z,-1.16
2024-01-07T05:52:43.699Z,-1.17
2024-01-07T05:53:15.255Z,-1.14
2024-01-07T05:53:47.393Z,-1.18
2024-01-07T05:54:18.974Z,-1.18
2024-01-07T05:54:50.687Z,-1.16
2024-01-07T05:55:22.455Z,-1.20
2024-01-07T05:55:54.032Z,-1.20
2024-01-07T05:56:25.643Z,-1.19
2024-01-07T05:56:57.259Z,-1.21
2024-01-07T05:57:29.842Z,-1.24
2024-01-07T05:58:01.563Z,-1.19
2024-01-07T05:58:33.433Z,-1.17
2024-01-07T05:59:05.001Z,-1.16
2024-01-07T05:59:36.616Z,-1.17
2024-01-07T06:00:08.848Z,-1.16
2024-01-07T06:00:44.341Z,-1.16
2024-01-07T06:01:22.530Z,-1.15
2024-01-07T06:01:59.410Z,-1.14
2024-01-07T06:02:31.085Z,-1.14
2024-01-07T06:03:03.118Z,-1.16
2024-01-07T06:03:35.002Z,-1.11
2024-01-07T06:04:06.948Z,-1.13
2024-01-07T06:04:39.197Z,-1.16
2024-01-07T06:05:10.877Z,-1.14
2024-01-07T06:05:42.528Z,-1.15
2024-01-07T06:06:14.794Z,-1.15
2024-01-07T06:06:46.898Z,-1.13
2024-01-07T06:07:19.485Z,-1.09
2024-01-07T06:07:51.255Z,-1.11
2024-01-07T06:08:22.932Z,-1.12
2024-01-07T06:08:54.543Z,-1.16
2024-01-07T06:09:26.249Z,-1.14
2024-01-07T06:09:57.910Z,-1.13
2024-01-07T06:10:29.554Z,-1.18
2024-01-07T06:11:01.154Z,-1.16
2024-01-07T06:11:32.804Z,-1.17
2024-01-07T06:12:04.682Z,-1.21
2024-01-07T06:12:36.348Z,-1.16
2024-01-07T06:13:08.166Z,-1.14
2024-01-07T06:13:39.815Z,-1.19
2024-01-07T06:14:11.436Z,-1.24
2024-01-07T06:14:43.036Z,-1.21
2024-01-07T06:15:14.644Z,-1.22
2024-01-07T06:15:46.462Z,-1.22
2024-01-07T06:16:18.191Z,-1.23
2024-01-07T06:16:49.944Z,-1.22
2024-01-07T06:17:21.618Z,-1.23
2024-01-07T06:17:53.268Z,-1.21
2024-01-07T06:18:24.999Z,-1.26
2024-01-07T06:18:56.996Z,-1.27
2024-01-07T06:19:28.883Z,-1.23
2024-01-07T06:20:00.829Z,-1.22
2024-01-07T06:20:32.467Z,-1.23
2024-01-07T06:21:07.069Z,-1.26
2024-01-07T06:21:38.691Z,-1.25
2024-01-07T06:22:10.405Z,-1.21
2024-01-07T06:22:42.084Z,-1.21
2024-01-07T06:23:13.737Z,-1.20
2024-01-07T06:23:46.030Z,-1.26
2024-01-07T06:24:17.719Z,-1.24
2024-01-07T06:24:49.486Z,-1.24
2024-01-07T06:25:21.644Z,-1.25
2024-01-07T06:25:53.343Z,-1.25
2024-01-07T06:26:24.902Z,-1.22
2024-01-07T06:26:56.587Z,-1.20
2024-01-07T06:27:28.219Z,-1.20
2024-01-07T06:27:59.855Z,-1.20
2024-01-07T06:28:32.634Z,-1.19
2024-01-07T06:29:04.402Z,-1.19
2024-01-07T06:29:36.111Z,-1.17
2024-01-07T06:30:08.520Z,-1.21
2024-01-07T06:30:40.214Z,-1.19
2024-01-07T06:31:12.064Z,-1.17
2024-01-07T06:31:46.056Z,-1.18
2024-01-07T06:32:17.753Z,-1.18
2024-01-07T06:32:49.859Z,-1.18
2024-01-07T06:33:22.106Z,-1.20
2024-01-07T06:33:54.287Z,-1.25
2024-01-07T06:34:26.070Z,-1.23
2024-01-07T06:34:57.763Z,-1.22
2024-01-07T06:35:29.642Z,-1.18
2024-01-07T06:36:02.079Z,-1.15
2024-01-07T06:36:34.008Z,-1.21
2024-01-07T06:37:06.791Z,-1.21
2024-01-07T06:37:38.525Z,-1.21
2024-01-07T06:38:10.229Z,-1.23
2024-01-07T06:38:41.876Z,-1.26
2024-01-07T06:39:13.993Z,-1.22
2024-01-07T06:39:45.623Z,-1.20
2024-01-07T06:40:17.311Z,-1.21
2024-01-07T06:40:48.973Z,-1.20
2024-01-07T06:41:20.642Z,-1.21
2024-01-07T06:41:52.258Z,-1.21
2024-01-07T06:42:23.885Z,-1.22
2024-01-07T06:42:55.573Z,-1.24
2024-01-07T06:43:28.449Z,-1.27
2024-01-07T06:44:00.039Z,-1.22
2024-01-07T06:44:31.732Z,-1.23
2024-01-07T06:45:04.301Z,-1.21
2024-01-07T06:45:35.893Z,-1.19
2024-01-07T06:46:07.560Z,-1.22
2024-01-07T06:46:39.333Z,-1.20
2024-01-07T06:47:10.907Z,-1.24
2024-01-07T06:47:42.552Z,-1.19
2024-01-07T06:48:14.336Z,-1.21
2024-01-07T06:48:48.711Z,-1.19
2024-01-07T06:49:22.495Z,-1.23
2024-01-07T06:49:54.199Z,-1.27
2024-01-07T06:50:25.881Z,-1.28
2024-01-07T06:50:58.502Z,-1.28
2024-01-07T06:51:30.147Z,-1.31
2024-01-07T06:52:01.818Z,-1.32
2024-01-07T06:52:33.554Z,-1.30
2024-01-07T06:53:05.251Z,-1.28
2024-01-07T06:53:36.815Z,-1.28
2024-01-07T06:54:09.797Z,-1.28
2024-01-07T06:54:42.834Z,-1.29
2024-01-07T06:55:14.677Z,-1.29
2024-01-07T06:55:47.172Z,-1.26
2024-01-07T06:56:18.773Z,-1.27
2024-01-07T06:56:50.584Z,-1.27
2024-01-07T06:57:22.229Z,-1.27
2024-01-07T06:57:53.898Z,-1.27
2024-01-07T06:58:25.546Z,-1.32
2024-01-07T06:58:57.211Z,-1.34
2024-01-07T06:59:28.896Z,-1.33
2024-01-07T07:00:00.645Z,-1.34
2024-01-07T07:00:32.312Z,-1.33
2024-01-07T07:01:04.710Z,-1.33
2024-01-07T07:01:36.574Z,-1.33
2024-01-07T07:02:08.254Z,-1.36
2024-01-07T07:02:39.980Z,-1.38
2024-01-07T07:03:12.635Z,-1.50
2024-01-07T07:03:44.435Z,-1.50
2024-01-07T07:04:16.253Z,-1.56
2024-01-07T07:04:49.028Z,-1.58
2024-01-07T07:05:20.819Z,-1.53
2024-01-07T07:05:52.493Z,-1.51
2024-01-07T07:06:25.348Z,-1.58
2024-01-07T07:06:58.516Z,-1.54
2024-01-07T07:07:30.137Z,-1.51
2024-01-07T07:08:03.379Z,-1.52
2024-01-07T07:08:34.983Z,-1.51
2024-01-07T07:09:06.595Z,-1.50
2024-01-07T07:09:38.266Z,-1.46
2024-01-07T07:10:10.087Z,-1.49
2024-01-07T07:10:41.920Z,-1.59
2024-01-07T07:11:13.673Z,-1.52
2024-01-07T07:11:45.628Z,-1.51
2024-01-07T07:12:17.315Z,-1.57
2024-01-07T07:12:49.029Z,-1.52
2024-01-07T07:13:20.663Z,-1.51
2024-01-07T07:13:52.240Z,-1.54
2024-01-07T07:14:23.814Z,-1.52
2024-01-07T07:14:55.460Z,-1.55
2024-01-07T07:15:28.941Z,-1.56
2024-01-07T07:16:01.345Z,-1.49
2024-01-07T07:16:33.060Z,-1.59
2024-01-07T07:17:04.945Z,-1.58
2024-01-07T07:17:39.139Z,-1.57
2024-01-07T07:18:10.817Z,-1.59
2024-01-07T07:18:43.414Z,-1.52
2024-01-07T07:19:16.505Z,-1.53
2024-01-07T07:19:48.480Z,-1.50
2024-01-07T07:20:20.838Z,-1.54
2024-01-07T07:20:52.549Z,-1.49
2024-01-07T07:21:24.316Z,-1.53
2024-01-07T07:21:56.054Z,-1.48
2024-01-07T07:22:27.678Z,-1.50
2024-01-07T07:22:59.470Z,-1.48
2024-01-07T07:23:31.836Z,-1.47
2024-01-07T07:24:03.505Z,-1.49
2024-01-07T07:24:35.146Z,-1.48
2024-01-07T07:25:07.358Z,-1.47
2024-01-07T07:25:39.002Z,-1.40
2024-01-07T07:26:10.578Z,-1.40
2024-01-07T07:26:42.349Z,-1.36
2024-01-07T07:27:14.891Z,-1.37
2024-01-07T07:27:46.592Z,-1.36
2024-01-07T07:28:19.004Z,-1.35
2024-01-07T07:28:50.649Z,-1.35
2024-01-07T07:29:22.298Z,-1.38
2024-01-07T07:29:54.084Z,-1.39
2024-01-07T07:30:25.732Z,-1.42
2024-01-07T07:30:57.416Z,-1.42
2024-01-07T07:31:29.120Z,-1.40
2024-01-07T07:32:00.947Z,-1.42
2024-01-07T07:32:32.694Z,-1.41
2024-01-07T07:33:04.600Z,-1.40
2024-01-07T07:33:36.588Z,-1.43
2024-01-07T07:34:10.529Z,-1.41
2024-01-07T07:34:42.353Z,-1.48
2024-01-07T07:35:14.087Z,-1.42
2024-01-07T07:35:45.969Z,-1.46
2024-01-07T07:36:17.617Z,-1.50
2024-01-07T07:36:49.276Z,-1.54
2024-01-07T07:37:21.778Z,-1.50
2024-01-07T07:37:53.589Z,-1.49
2024-01-07T07:38:25.163Z,-1.46
2024-01-07T07:38:56.781Z,-1.47
2024-01-07T07:39:28.369Z,-1.48
2024-01-07T07:40:00.097Z,-1.52
2024-01-07T07:40:31.715Z,-1.52
2024-01-07T07:41:03.435Z,-1.51
2024-01-07T07:41:35.029Z,-1.52
2024-01-07T07:42:06.874Z,-1.50
2024-01-07T07:42:38.557Z,-1.53
2024-01-07T07:43:10.806Z,-1.58
2024-01-07T07:43:42.420Z,-1.59
2024-01-07T07:44:14.067Z,-1.60
2024-01-07T07:44:45.613Z,-1.53
2024-01-07T07:45:17.291Z,-1.57
2024-01-07T07:45:48.989Z,-1.55
2024-01-07T07:46:20.604Z,-1.56
2024-01-07T07:46:52.187Z,-1.54
2024-01-07T07:47:23.817Z,-1.57
2024-01-07T07:47:55.483Z,-1.59
2024-01-07T07:48:27.645Z,-1.56
2024-01-07T07:48:59.361Z,-1.51
2024-01-07T07:49:31.127Z,-1.53
2024-01-07T07:50:03.483Z,-1.58
2024-01-07T07:50:35.184Z,-1.58
2024-01-07T07:51:06.904Z,-1.58
2024-01-07T07:51:38.524Z,-1.54
2024-01-07T07:52:10.538Z,-1.50
2024-01-07T07:52:45.052Z,-1.54
2024-01-07T07:53:16.716Z,-1.52
2024-01-07T07:53:48.384Z,-1.49
2024-01-07T07:54:19.936Z,-1.45
2024-01-07T07:54:51.653Z,-1.48
2024-01-07T07:55:23.418Z,-1.50
2024-01-07T07:55:55.194Z,-1.51
2024-01-07T07:56:26.763Z,-1.52
2024-01-07T07:56:59.425Z,-1.52
2024-01-07T07:57:31.008Z,-1.51
2024-01-07T07:58:02.704Z,-1.50
2024-01-07T07:58:34.482Z,-1.51
2024-01-07T07:59:06.097Z,-1.49
2024-01-07T07:59:37.731Z,-1.50
2024-01-07T08:00:13.975Z,-1.49
2024-01-07T08:00:46.198Z,-1.48
2024-01-07T08:01:19.873Z,-1.50
2024-01-07T08:01:51.940Z,-1.51
2024-01-07T08:02:23.610Z,-1.49
2024-01-07T08:02:55.233Z,-1.55
2024-01-07T08:03:27.003Z,-1.52
2024-01-07T08:03:58.786Z,-1.53
2024-01-07T08:04:30.660Z,-1.49
2024-01-07T08:05:02.418Z,-1.50
2024-01-07T08:05:34.266Z,-1.52
2024-01-07T08:06:07.603Z,-1.54
2024-01-07T08:06:40.681Z,-1.51
2024-01-07T08:07:12.418Z,-1.46
2024-01-07T08:07:44.159Z,-1.46
2024-01-07T08:08:15.741Z,-1.44
2024-01-07T08:08:47.361Z,-1.45
2024-01-07T08:09:18.978Z,-1.48
2024-01-07T08:09:50.798Z,-1.45
2024-01-07T08:10:23.840Z,-1.50
2024-01-07T08:10:55.487Z,-1.51
2024-01-07T08:11:27.163Z,-1.56
2024-01-07T08:11:58.736Z,-1.52
2024-01-07T08:12:30.376Z,-1.53
2024-01-07T08:13:33.725Z,-1.53
2024-01-07T08:14:27.992Z,-1.54
2024-01-07T08:15:16.884Z,-1.46
2024-01-07T08:16:05.644Z,-1.47
2024-01-07T08:17:14.692Z,-1.47
2024-01-07T08:19:08.921Z,-1.58
2024-01-07T08:20:03.468Z,-1.50
2024-01-07T08:20:48.538Z,-1.49
2024-01-07T08:21:48.656Z,-1.49
2024-01-07T08:23:00.516Z,-1.54
2024-01-07T08:23:35.275Z,-1.48
2024-01-07T08:24:32.244Z,-1.50
2024-01-07T08:26:02.826Z,-1.50
2024-01-07T08:27:21.839Z,-1.51
2024-01-07T08:28:07.902Z,-1.54
2024-01-07T08:28:48.728Z,-1.51
2024-01-07T08:29:37.729Z,-1.52
2024-01-07T08:30:27.143Z,-1.49
2024-01-07T08:31:13.674Z,-1.49
2024-01-07T08:31:56.324Z,-1.54
2024-01-07T08:32:38.480Z,-1.52
2024-01-07T08:33:44.690Z,-1.50
2024-01-07T08:34:25.151Z,-1.54
2024-01-07T08:35:26.684Z,-1.49
2024-01-07T08:36:36.668Z,-1.54
2024-01-07T08:38:43.984Z,-1.49
2024-01-07T08:39:46.769Z,-1.49
2024-01-07T08:41:05.010Z,-1.45
2024-01-07T08:42:13.269Z,-1.46
2024-01-07T08:44:51.881Z,-1.42
2024-01-07T08:45:51.442Z,-1.41
2024-01-07T08:47:16.768Z,-1.48
2024-01-07T08:47:59.098Z,-1.44
2024-01-07T08:49:16.667Z,-1.43
2024-01-07T08:50:08.184Z,-1.49
2024-01-07T08:52:32.218Z,-1.50
2024-01-07T08:54:04.545Z,-1.46
2024-01-07T08:55:01.307Z,-1.43
2024-01-07T08:56:02.943Z,-1.42
2024-01-07T08:58:19.003Z,-1.44
2024-01-07T08:59:09.182Z,-1.37
2024-01-07T08:59:59.286Z,-1.41
2024-01-07T09:01:48.232Z,-1.44
2024-01-07T09:02:58.416Z,-1.41
2024-01-07T09:03:51.367Z,-1.41
2024-01-07T09:04:55.862Z,-1.40
2024-01-07T09:05:35.653Z,-1.31
2024-01-07T09:07:34.517Z,-1.32
2024-01-07T09:08:43.958Z,-1.32
2024-01-07T09:09:44.493Z,-1.30
2024-01-07T09:10:16.269Z,-1.29
2024-01-07T09:10:48.095Z,-1.35
2024-01-07T09:11:20.848Z,-1.37
2024-01-07T09:11:53.678Z,-1.35
2024-01-07T09:12:25.387Z,-1.32
2024-01-07T09:12:57.043Z,-1.29
2024-01-07T09:13:28.673Z,-1.31
2024-01-07T09:14:01.007Z,-1.35
2024-01-07T09:14:32.633Z,-1.30
2024-01-07T09:15:08.907Z,-1.23
2024-01-07T09:16:57.813Z,-1.29
2024-01-07T09:17:36.383Z,-1.26
2024-01-07T09:18:21.006Z,-1.29
2024-01-07T09:20:54.608Z,-1.23
2024-01-07T09:21:42.240Z,-1.20
2024-01-07T09:22:39.313Z,-1.19
2024-01-07T09:23:10.901Z,-1.22
2024-01-07T09:23:43.064Z,-1.18
2024-01-07T09:24:15.229Z,-1.11
2024-01-07T09:24:47.543Z,-1.06
2024-01-07T09:25:19.217Z,-0.97
2024-01-07T09:25:50.826Z,-0.96
2024-01-07T09:26:22.528Z,-0.90
2024-01-07T09:26:54.193Z,-0.93
2024-01-07T09:27:25.849Z,-0.91
2024-01-07T09:27:57.580Z,-0.86
2024-01-07T09:28:29.192Z,-0.82
2024-01-07T09:29:00.914Z,-0.87
2024-01-07T09:29:33.257Z,-1.06
2024-01-07T09:30:05.373Z,-1.05
2024-01-07T09:30:37.126Z,-1.01